Aviation Digital Data Service (ADDS)

Output produced by METARs form (2058 UTC 20 October 2018)
found at http://www.aviationweather.gov/metar/data/
 
METAR text: KSLO 202055Z AUTO 31022G31KT 10SM CLR 18/M04 A3005 RMK AO2 T01761037
Conditions at: KSLO (SALEM/LECKRONE , IL, US) observed 2055 UTC 20 October 2018
Temperature: 17.6°C (64°F)
Dewpoint: -3.7°C (25°F) [RH = 23%]
Pressure (altimeter): 30.05 inches Hg (1017.7 mb)
Winds: from the NW (310 degrees) at 25 MPH (22 knots; 11.3 m/s)
gusting to 36 MPH (31 knots; 15.9 m/s)
Visibility: 10 or more miles (16+ km)
Ceiling: at least 12,000 feet AGL
Clouds: sky clear below 12,000 feet AGL
Weather: automated observation with no human augmentation;
there may or may not be significant weather present at this time